sensor_id;sensor_type;location;lat;lon;timestamp;pressure;altitude;pressure_sealevel;temperature
73734;BMP280;62039;50.000;9.064;2023-12-14T00:00:01;99279.34;;;7.21
73734;BMP280;62039;50.000;9.064;2023-12-14T00:02:28;99287.13;;;7.21
73734;BMP280;62039;50.000;9.064;2023-12-14T00:04:57;99284.69;;;7.19
73734;BMP280;62039;50.000;9.064;2023-12-14T00:07:24;99286.31;;;7.20
73734;BMP280;62039;50.000;9.064;2023-12-14T00:09:51;99282.91;;;7.20
73734;BMP280;62039;50.000;9.064;2023-12-14T00:12:18;99287.28;;;7.19
73734;BMP280;62039;50.000;9.064;2023-12-14T00:14:45;99290.84;;;7.18
73734;BMP280;62039;50.000;9.064;2023-12-14T00:17:12;99286.47;;;7.19
73734;BMP280;62039;50.000;9.064;2023-12-14T00:19:39;99303.69;;;7.20
73734;BMP280;62039;50.000;9.064;2023-12-14T00:22:08;99300.28;;;7.19
73734;BMP280;62039;50.000;9.064;2023-12-14T00:24:35;99310.66;;;7.19
73734;BMP280;62039;50.000;9.064;2023-12-14T00:27:03;99308.06;;;7.19
73734;BMP280;62039;50.000;9.064;2023-12-14T00:29:29;99307.25;;;7.19
73734;BMP280;62039;50.000;9.064;2023-12-14T00:31:57;99310.66;;;7.19
73734;BMP280;62039;50.000;9.064;2023-12-14T00:34:24;99323.66;;;7.19
73734;BMP280;62039;50.000;9.064;2023-12-14T00:36:50;99321.06;;;7.19
73734;BMP280;62039;50.000;9.064;2023-12-14T00:39:20;99321.06;;;7.19
73734;BMP280;62039;50.000;9.064;2023-12-14T00:41:47;99319.28;;;7.20
73734;BMP280;62039;50.000;9.064;2023-12-14T00:44:14;99325.28;;;7.20
73734;BMP280;62039;50.000;9.064;2023-12-14T00:46:41;99325.28;;;7.20
73734;BMP280;62039;50.000;9.064;2023-12-14T00:49:08;99326.91;;;7.21
73734;BMP280;62039;50.000;9.064;2023-12-14T00:51:34;99337.28;;;7.21
73734;BMP280;62039;50.000;9.064;2023-12-14T00:54:01;99342.50;;;7.21
73734;BMP280;62039;50.000;9.064;2023-12-14T00:56:31;99344.91;;;7.23
73734;BMP280;62039;50.000;9.064;2023-12-14T00:58:58;99353.84;;;7.20
73734;BMP280;62039;50.000;9.064;2023-12-14T01:01:25;99364.09;;;7.22
73734;BMP280;62039;50.000;9.064;2023-12-14T01:03:52;99368.47;;;7.21
73734;BMP280;62039;50.000;9.064;2023-12-14T01:06:19;99372.03;;;7.20
73734;BMP280;62039;50.000;9.064;2023-12-14T01:08:46;99384.06;;;7.21
73734;BMP280;62039;50.000;9.064;2023-12-14T01:11:13;99381.44;;;7.21
73734;BMP280;62039;50.000;9.064;2023-12-14T01:13:42;99390.06;;;7.22
73734;BMP280;62039;50.000;9.064;2023-12-14T01:16:09;99393.63;;;7.21
73734;BMP280;62039;50.000;9.064;2023-12-14T01:18:36;99397.84;;;7.22
73734;BMP280;62039;50.000;9.064;2023-12-14T01:21:04;99400.44;;;7.22
73734;BMP280;62039;50.000;9.064;2023-12-14T01:23:31;99403.81;;;7.22
73734;BMP280;62039;50.000;9.064;2023-12-14T01:25:58;99409.03;;;7.22
73734;BMP280;62039;50.000;9.064;2023-12-14T01:28:25;99412.44;;;7.23
73734;BMP280;62039;50.000;9.064;2023-12-14T01:30:55;99427.06;;;7.24
73734;BMP280;62039;50.000;9.064;2023-12-14T01:33:22;99428.84;;;7.23
73734;BMP280;62039;50.000;9.064;2023-12-14T01:35:49;99429.66;;;7.24
73734;BMP280;62039;50.000;9.064;2023-12-14T01:38:16;99440.84;;;7.24
73734;BMP280;62039;50.000;9.064;2023-12-14T01:40:43;99445.22;;;7.24
73734;BMP280;62039;50.000;9.064;2023-12-14T01:43:10;99446.88;;;7.25
73734;BMP280;62039;50.000;9.064;2023-12-14T01:45:37;99451.25;;;7.24
73734;BMP280;62039;50.000;9.064;2023-12-14T01:48:07;99449.31;;;7.26
73734;BMP280;62039;50.000;9.064;2023-12-14T01:50:34;99455.47;;;7.25
73734;BMP280;62039;50.000;9.064;2023-12-14T01:53:01;99465.72;;;7.27
73734;BMP280;62039;50.000;9.064;2023-12-14T01:55:28;99475.28;;;7.26
73734;BMP280;62039;50.000;9.064;2023-12-14T01:57:55;99476.09;;;7.27
73734;BMP280;62039;50.000;9.064;2023-12-14T02:00:28;99474.31;;;7.27
73734;BMP280;62039;50.000;9.064;2023-12-14T02:02:56;99479.66;;;7.26
73734;BMP280;62039;50.000;9.064;2023-12-14T02:05:26;99483.75;;;7.28
73734;BMP280;62039;50.000;9.064;2023-12-14T02:07:53;99471.72;;;7.27
73734;BMP280;62039;50.000;9.064;2023-12-14T02:10:20;99481.16;;;7.28
73734;BMP280;62039;50.000;9.064;2023-12-14T02:12:46;99482.75;;;7.29
73734;BMP280;62039;50.000;9.064;2023-12-14T02:15:13;99481.94;;;7.29
73734;BMP280;62039;50.000;9.064;2023-12-14T02:17:40;99489.56;;;7.30
73734;BMP280;62039;50.000;9.064;2023-12-14T02:20:08;99491.22;;;7.31
73734;BMP280;62039;50.000;9.064;2023-12-14T02:22:48;99494.78;;;7.30
73734;BMP280;62039;50.000;9.064;2023-12-14T02:25:15;99489.56;;;7.30
73734;BMP280;62039;50.000;9.064;2023-12-14T02:27:42;99497.38;;;7.30
73734;BMP280;62039;50.000;9.064;2023-12-14T02:30:10;99499.81;;;7.32
73734;BMP280;62039;50.000;9.064;2023-12-14T02:32:37;99500.63;;;7.32
73734;BMP280;62039;50.000;9.064;2023-12-14T02:35:05;99502.25;;;7.33
73734;BMP280;62039;50.000;9.064;2023-12-14T02:37:32;99502.25;;;7.33
73734;BMP280;62039;50.000;9.064;2023-12-14T02:40:03;99503.88;;;7.34
73734;BMP280;62039;50.000;9.064;2023-12-14T02:42:30;99511.69;;;7.34
73734;BMP280;62039;50.000;9.064;2023-12-14T02:44:57;99514.28;;;7.34
73734;BMP280;62039;50.000;9.064;2023-12-14T02:47:24;99509.91;;;7.35
73734;BMP280;62039;50.000;9.064;2023-12-14T02:49:51;99513.31;;;7.35
73734;BMP280;62039;50.000;9.064;2023-12-14T02:52:18;99517.53;;;7.36
73734;BMP280;62039;50.000;9.064;2023-12-14T02:54:45;99525.31;;;7.36
73734;BMP280;62039;50.000;9.064;2023-12-14T02:57:14;99523.53;;;7.37
73734;BMP280;62039;50.000;9.064;2023-12-14T02:59:41;99525.31;;;7.36
73734;BMP280;62039;50.000;9.064;2023-12-14T03:02:08;99533.91;;;7.37
73734;BMP280;62039;50.000;9.064;2023-12-14T03:04:37;99533.91;;;7.37
73734;BMP280;62039;50.000;9.064;2023-12-14T03:07:04;99532.28;;;7.36
73734;BMP280;62039;50.000;9.064;2023-12-14T03:09:31;99534.88;;;7.36
73734;BMP280;62039;50.000;9.064;2023-12-14T03:11:59;99545.28;;;7.36
73734;BMP280;62039;50.000;9.064;2023-12-14T03:14:32;99543.50;;;7.36
73734;BMP280;62039;50.000;9.064;2023-12-14T03:17:00;99553.06;;;7.36
73734;BMP280;62039;50.000;9.064;2023-12-14T03:19:27;99548.06;;;7.34
73734;BMP280;62039;50.000;9.064;2023-12-14T03:21:54;99552.28;;;7.35
73734;BMP280;62039;50.000;9.064;2023-12-14T03:24:21;99555.84;;;7.34
73734;BMP280;62039;50.000;9.064;2023-12-14T03:26:47;99566.25;;;7.34
73734;BMP280;62039;50.000;9.064;2023-12-14T03:29:14;99561.19;;;7.33
73734;BMP280;62039;50.000;9.064;2023-12-14T03:31:44;99567.22;;;7.33
73734;BMP280;62039;50.000;9.064;2023-12-14T03:34:11;99565.59;;;7.32
73734;BMP280;62039;50.000;9.064;2023-12-14T03:36:38;99568.19;;;7.32
73734;BMP280;62039;50.000;9.064;2023-12-14T03:39:05;99572.56;;;7.32
73734;BMP280;62039;50.000;9.064;2023-12-14T03:41:32;99573.53;;;7.31
73734;BMP280;62039;50.000;9.064;2023-12-14T03:43:59;99579.69;;;7.30
73734;BMP280;62039;50.000;9.064;2023-12-14T03:46:26;99585.69;;;7.30
73734;BMP280;62039;50.000;9.064;2023-12-14T03:48:55;99590.06;;;7.30
73734;BMP280;62039;50.000;9.064;2023-12-14T03:51:22;99604.03;;;7.29
73734;BMP280;62039;50.000;9.064;2023-12-14T03:53:49;99607.44;;;7.29
73734;BMP280;62039;50.000;9.064;2023-12-14T03:56:16;99608.44;;;7.28
73734;BMP280;62039;50.000;9.064;2023-12-14T03:58:43;99625.00;;;7.27
73734;BMP280;62039;50.000;9.064;2023-12-14T04:01:17;99617.19;;;7.27
73734;BMP280;62039;50.000;9.064;2023-12-14T04:03:44;99618.31;;;7.25
73734;BMP280;62039;50.000;9.064;2023-12-14T04:06:13;99627.88;;;7.24
73734;BMP280;62039;50.000;9.064;2023-12-14T04:08:41;99628.84;;;7.23
73734;BMP280;62039;50.000;9.064;2023-12-14T04:11:08;99626.25;;;7.23
73734;BMP280;62039;50.000;9.064;2023-12-14T04:13:35;99636.66;;;7.23
73734;BMP280;62039;50.000;9.064;2023-12-14T04:16:02;99636.00;;;7.21
73734;BMP280;62039;50.000;9.064;2023-12-14T04:18:29;99644.44;;;7.23
73734;BMP280;62039;50.000;9.064;2023-12-14T04:20:56;99645.41;;;7.22
73734;BMP280;62039;50.000;9.064;2023-12-14T04:23:26;99649.81;;;7.22
73734;BMP280;62039;50.000;9.064;2023-12-14T04:25:53;99647.38;;;7.20
73734;BMP280;62039;50.000;9.064;2023-12-14T04:28:20;99645.72;;;7.19
73734;BMP280;62039;50.000;9.064;2023-12-14T04:30:46;99645.72;;;7.19
73734;BMP280;62039;50.000;9.064;2023-12-14T04:33:13;99649.28;;;7.18
73734;BMP280;62039;50.000;9.064;2023-12-14T04:35:40;99659.69;;;7.18
73734;BMP280;62039;50.000;9.064;2023-12-14T04:38:07;99670.06;;;7.18
73734;BMP280;62039;50.000;9.064;2023-12-14T04:40:37;99665.84;;;7.17
73734;BMP280;62039;50.000;9.064;2023-12-14T04:43:06;99661.59;;;7.16
73734;BMP280;62039;50.000;9.064;2023-12-14T04:45:33;99669.41;;;7.16
73734;BMP280;62039;50.000;9.064;2023-12-14T04:48:00;99671.19;;;7.16
73734;BMP280;62039;50.000;9.064;2023-12-14T04:50:27;99670.41;;;7.15
73734;BMP280;62039;50.000;9.064;2023-12-14T04:52:54;99679.78;;;7.16
73734;BMP280;62039;50.000;9.064;2023-12-14T04:55:21;99673.00;;;7.15
73734;BMP280;62039;50.000;9.064;2023-12-14T04:57:51;99684.03;;;7.17
73734;BMP280;62039;50.000;9.064;2023-12-14T05:00:18;99680.78;;;7.15
73734;BMP280;62039;50.000;9.064;2023-12-14T05:02:48;99693.59;;;7.17
73734;BMP280;62039;50.000;9.064;2023-12-14T05:05:15;99691.97;;;7.16
73734;BMP280;62039;50.000;9.064;2023-12-14T05:07:42;99688.56;;;7.15
73734;BMP280;62039;50.000;9.064;2023-12-14T05:10:09;99697.97;;;7.16
73734;BMP280;62039;50.000;9.064;2023-12-14T05:12:36;99709.34;;;7.15
73734;BMP280;62039;50.000;9.064;2023-12-14T05:15:06;99726.53;;;7.16
73734;BMP280;62039;50.000;9.064;2023-12-14T05:17:33;99718.75;;;7.16
73734;BMP280;62039;50.000;9.064;2023-12-14T05:20:01;99717.94;;;7.16
73734;BMP280;62039;50.000;9.064;2023-12-14T05:22:28;99738.88;;;7.14
73734;BMP280;62039;50.000;9.064;2023-12-14T05:24:55;99743.13;;;7.15
73734;BMP280;62039;50.000;9.064;2023-12-14T05:27:22;99745.88;;;7.14
73734;BMP280;62039;50.000;9.064;2023-12-14T05:29:49;99760.78;;;7.12
73734;BMP280;62039;50.000;9.064;2023-12-14T05:32:19;99767.06;;;7.09
73734;BMP280;62039;50.000;9.064;2023-12-14T05:34:46;99781.47;;;7.03
73734;BMP280;62039;50.000;9.064;2023-12-14T05:37:13;99784.22;;;7.02
73734;BMP280;62039;50.000;9.064;2023-12-14T05:39:41;99777.44;;;7.01
73734;BMP280;62039;50.000;9.064;2023-12-14T05:42:08;99768.97;;;6.99
73734;BMP280;62039;50.000;9.064;2023-12-14T05:44:35;99763.75;;;6.99
73734;BMP280;62039;50.000;9.064;2023-12-14T05:47:02;99782.09;;;6.97
73734;BMP280;62039;50.000;9.064;2023-12-14T05:49:32;99783.88;;;6.97
73734;BMP280;62039;50.000;9.064;2023-12-14T05:52:00;99790.84;;;6.96
73734;BMP280;62039;50.000;9.064;2023-12-14T05:54:27;99798.78;;;6.95
73734;BMP280;62039;50.000;9.064;2023-12-14T05:56:53;99805.59;;;6.96
73734;BMP280;62039;50.000;9.064;2023-12-14T05:59:20;99806.59;;;6.95
73734;BMP280;62039;50.000;9.064;2023-12-14T06:01:47;99816.97;;;6.95
73734;BMP280;62039;50.000;9.064;2023-12-14T06:04:14;99814.38;;;6.95
73734;BMP280;62039;50.000;9.064;2023-12-14T06:06:44;99823.13;;;6.94
73734;BMP280;62039;50.000;9.064;2023-12-14T06:09:11;99824.09;;;6.93
73734;BMP280;62039;50.000;9.064;2023-12-14T06:11:38;99824.22;;;6.91
73734;BMP280;62039;50.000;9.064;2023-12-14T06:14:05;99828.59;;;6.91
73734;BMP280;62039;50.000;9.064;2023-12-14T06:16:32;99831.34;;;6.89
73734;BMP280;62039;50.000;9.064;2023-12-14T06:18:59;99839.94;;;6.90
73734;BMP280;62039;50.000;9.064;2023-12-14T06:21:26;99846.91;;;6.89
73734;BMP280;62039;50.000;9.064;2023-12-14T06:23:55;99853.88;;;6.89
73734;BMP280;62039;50.000;9.064;2023-12-14T06:26:22;99859.09;;;6.89
73734;BMP280;62039;50.000;9.064;2023-12-14T06:28:49;99865.25;;;6.88
73734;BMP280;62039;50.000;9.064;2023-12-14T06:31:17;99866.09;;;6.88
73734;BMP280;62039;50.000;9.064;2023-12-14T06:33:44;99862.66;;;6.88
73734;BMP280;62039;50.000;9.064;2023-12-14T06:36:11;99868.69;;;6.88
73734;BMP280;62039;50.000;9.064;2023-12-14T06:38:38;99870.47;;;6.88
73734;BMP280;62039;50.000;9.064;2023-12-14T06:41:08;99881.66;;;6.88
73734;BMP280;62039;50.000;9.064;2023-12-14T06:43:35;99884.41;;;6.87
73734;BMP280;62039;50.000;9.064;2023-12-14T06:46:02;99883.59;;;6.86
73734;BMP280;62039;50.000;9.064;2023-12-14T06:48:29;99890.41;;;6.87
73734;BMP280;62039;50.000;9.064;2023-12-14T06:50:56;99895.59;;;6.87
73734;BMP280;62039;50.000;9.064;2023-12-14T06:53:23;99895.44;;;6.89
73734;BMP280;62039;50.000;9.064;2023-12-14T06:55:50;99885.22;;;6.87
73734;BMP280;62039;50.000;9.064;2023-12-14T06:58:19;99893.81;;;6.88
73734;BMP280;62039;50.000;9.064;2023-12-14T07:00:46;99899.66;;;6.90
73734;BMP280;62039;50.000;9.064;2023-12-14T07:03:13;99905.81;;;6.89
73734;BMP280;62039;50.000;9.064;2023-12-14T07:05:42;99902.44;;;6.88
73734;BMP280;62039;50.000;9.064;2023-12-14T07:08:09;99912.16;;;6.86
73734;BMP280;62039;50.000;9.064;2023-12-14T07:10:36;99925.94;;;6.87
73734;BMP280;62039;50.000;9.064;2023-12-14T07:13:03;99925.13;;;6.86
73734;BMP280;62039;50.000;9.064;2023-12-14T07:15:33;99919.94;;;6.86
73734;BMP280;62039;50.000;9.064;2023-12-14T07:18:00;99927.84;;;6.85
73734;BMP280;62039;50.000;9.064;2023-12-14T07:20:27;99931.28;;;6.85
73734;BMP280;62039;50.000;9.064;2023-12-14T07:22:54;99930.59;;;6.83
73734;BMP280;62039;50.000;9.064;2023-12-14T07:25:21;99943.56;;;6.83
73734;BMP280;62039;50.000;9.064;2023-12-14T07:27:49;99943.72;;;6.82
73734;BMP280;62039;50.000;9.064;2023-12-14T07:30:15;99949.91;;;6.81
73734;BMP280;62039;50.000;9.064;2023-12-14T07:32:45;99957.69;;;6.81
73734;BMP280;62039;50.000;9.064;2023-12-14T07:35:12;99966.44;;;6.80
73734;BMP280;62039;50.000;9.064;2023-12-14T07:37:39;99968.06;;;6.81
73734;BMP280;62039;50.000;9.064;2023-12-14T07:40:07;99972.44;;;6.80
73734;BMP280;62039;50.000;9.064;2023-12-14T07:42:34;99975.16;;;6.79
73734;BMP280;62039;50.000;9.064;2023-12-14T07:45:02;99980.38;;;6.79
73734;BMP280;62039;50.000;9.064;2023-12-14T07:47:30;99981.31;;;6.78
73734;BMP280;62039;50.000;9.064;2023-12-14T07:49:59;99987.47;;;6.77
73734;BMP280;62039;50.000;9.064;2023-12-14T07:52:26;99991.84;;;6.76
73734;BMP280;62039;50.000;9.064;2023-12-14T07:54:53;99995.25;;;6.77
73734;BMP280;62039;50.000;9.064;2023-12-14T07:57:20;100003.88;;;6.77
73734;BMP280;62039;50.000;9.064;2023-12-14T07:59:47;100007.41;;;6.76
73734;BMP280;62039;50.000;9.064;2023-12-14T08:02:14;100009.06;;;6.77
73734;BMP280;62039;50.000;9.064;2023-12-14T08:04:41;100014.25;;;6.77
73734;BMP280;62039;50.000;9.064;2023-12-14T08:07:10;100011.78;;;6.76
73734;BMP280;62039;50.000;9.064;2023-12-14T08:09:37;100024.63;;;6.77
73734;BMP280;62039;50.000;9.064;2023-12-14T08:12:05;100032.28;;;6.79
73734;BMP280;62039;50.000;9.064;2023-12-14T08:14:32;100034.06;;;6.78
73734;BMP280;62039;50.000;9.064;2023-12-14T08:16:59;100030.50;;;6.79
73734;BMP280;62039;50.000;9.064;2023-12-14T08:19:26;100033.94;;;6.80
73734;BMP280;62039;50.000;9.064;2023-12-14T08:21:53;100045.13;;;6.80
73734;BMP280;62039;50.000;9.064;2023-12-14T08:24:22;100047.56;;;6.82
73734;BMP280;62039;50.000;9.064;2023-12-14T08:26:49;100042.38;;;6.82
73734;BMP280;62039;50.000;9.064;2023-12-14T08:29:16;100062.19;;;6.83
73734;BMP280;62039;50.000;9.064;2023-12-14T08:31:43;100065.47;;;6.85
73734;BMP280;62039;50.000;9.064;2023-12-14T08:34:10;100074.91;;;6.86
73734;BMP280;62039;50.000;9.064;2023-12-14T08:36:37;100087.75;;;6.87
73734;BMP280;62039;50.000;9.064;2023-12-14T08:39:04;100092.00;;;6.88
73734;BMP280;62039;50.000;9.064;2023-12-14T08:41:34;100089.22;;;6.90
73734;BMP280;62039;50.000;9.064;2023-12-14T08:44:00;100090.03;;;6.90
73734;BMP280;62039;50.000;9.064;2023-12-14T08:46:27;100096.06;;;6.91
73734;BMP280;62039;50.000;9.064;2023-12-14T08:48:54;100101.94;;;6.93
73734;BMP280;62039;50.000;9.064;2023-12-14T08:51:21;100099.22;;;6.94
73734;BMP280;62039;50.000;9.064;2023-12-14T08:53:48;100106.84;;;6.96
73734;BMP280;62039;50.000;9.064;2023-12-14T08:56:15;100118.03;;;6.96
73734;BMP280;62039;50.000;9.064;2023-12-14T08:58:45;100117.91;;;6.98
73734;BMP280;62039;50.000;9.064;2023-12-14T09:01:12;100121.31;;;6.98
73734;BMP280;62039;50.000;9.064;2023-12-14T09:03:45;100136.78;;;7.00
73734;BMP280;62039;50.000;9.064;2023-12-14T09:06:12;100138.41;;;7.01
73734;BMP280;62039;50.000;9.064;2023-12-14T09:08:39;100147.81;;;7.02
73734;BMP280;62039;50.000;9.064;2023-12-14T09:11:06;100153.84;;;7.02
73734;BMP280;62039;50.000;9.064;2023-12-14T09:13:33;100154.66;;;7.03
73734;BMP280;62039;50.000;9.064;2023-12-14T09:16:03;100162.31;;;7.04
73734;BMP280;62039;50.000;9.064;2023-12-14T09:18:30;100162.31;;;7.04
73734;BMP280;62039;50.000;9.064;2023-12-14T09:20:57;100176.13;;;7.05
73734;BMP280;62039;50.000;9.064;2023-12-14T09:23:24;100170.94;;;7.05
73734;BMP280;62039;50.000;9.064;2023-12-14T09:25:52;100175.16;;;7.06
73734;BMP280;62039;50.000;9.064;2023-12-14T09:28:19;100182.00;;;7.07
73734;BMP280;62039;50.000;9.064;2023-12-14T09:30:46;100190.63;;;7.07
73734;BMP280;62039;50.000;9.064;2023-12-14T09:33:15;100205.22;;;7.08
73734;BMP280;62039;50.000;9.064;2023-12-14T09:35:42;100194.03;;;7.08
73734;BMP280;62039;50.000;9.064;2023-12-14T09:38:09;100199.22;;;7.08
73734;BMP280;62039;50.000;9.064;2023-12-14T09:40:36;100208.63;;;7.09
73734;BMP280;62039;50.000;9.064;2023-12-14T09:43:06;100218.91;;;7.11
73734;BMP280;62039;50.000;9.064;2023-12-14T09:45:35;100219.72;;;7.11
73734;BMP280;62039;50.000;9.064;2023-12-14T09:48:03;100216.16;;;7.12
73734;BMP280;62039;50.000;9.064;2023-12-14T09:50:34;100217.81;;;7.13
73734;BMP280;62039;50.000;9.064;2023-12-14T09:53:01;100219.59;;;7.13
73734;BMP280;62039;50.000;9.064;2023-12-14T09:55:28;100223.81;;;7.14
73734;BMP280;62039;50.000;9.064;2023-12-14T09:57:55;100231.47;;;7.15
73734;BMP280;62039;50.000;9.064;2023-12-14T10:00:35;100229.69;;;7.16
73734;BMP280;62039;50.000;9.064;2023-12-14T10:03:19;100234.88;;;7.16
73734;BMP280;62039;50.000;9.064;2023-12-14T10:05:49;100255.53;;;7.17
73734;BMP280;62039;50.000;9.064;2023-12-14T10:08:17;100241.59;;;7.18
73734;BMP280;62039;50.000;9.064;2023-12-14T10:10:44;100242.41;;;7.19
73734;BMP280;62039;50.000;9.064;2023-12-14T10:13:11;100242.28;;;7.20
73734;BMP280;62039;50.000;9.064;2023-12-14T10:15:43;100253.31;;;7.22
73734;BMP280;62039;50.000;9.064;2023-12-14T10:18:10;100249.09;;;7.21
73734;BMP280;62039;50.000;9.064;2023-12-14T10:20:37;100250.72;;;7.22
73734;BMP280;62039;50.000;9.064;2023-12-14T10:23:07;100248.13;;;7.22
73734;BMP280;62039;50.000;9.064;2023-12-14T10:25:35;100247.34;;;7.22
73734;BMP280;62039;50.000;9.064;2023-12-14T10:28:03;100251.53;;;7.23
73734;BMP280;62039;50.000;9.064;2023-12-14T10:30:30;100259.34;;;7.23
73734;BMP280;62039;50.000;9.064;2023-12-14T10:32:59;100261.13;;;7.22
73734;BMP280;62039;50.000;9.064;2023-12-14T10:35:26;100262.75;;;7.23
73734;BMP280;62039;50.000;9.064;2023-12-14T10:37:55;100265.34;;;7.23
73734;BMP280;62039;50.000;9.064;2023-12-14T10:40:26;100270.56;;;7.23
73734;BMP280;62039;50.000;9.064;2023-12-14T10:42:55;100271.38;;;7.24
73734;BMP280;62039;50.000;9.064;2023-12-14T10:45:30;100275.75;;;7.23
73734;BMP280;62039;50.000;9.064;2023-12-14T10:47:58;100287.91;;;7.23
73734;BMP280;62039;50.000;9.064;2023-12-14T10:50:28;100288.75;;;7.23
73734;BMP280;62039;50.000;9.064;2023-12-14T10:52:55;100295.59;;;7.24
73734;BMP280;62039;50.000;9.064;2023-12-14T10:55:30;100299.00;;;7.25
73734;BMP280;62039;50.000;9.064;2023-12-14T10:57:58;100304.19;;;7.25
73734;BMP280;62039;50.000;9.064;2023-12-14T11:00:25;100305.03;;;7.25
73734;BMP280;62039;50.000;9.064;2023-12-14T11:02:52;100310.22;;;7.25
73734;BMP280;62039;50.000;9.064;2023-12-14T11:05:22;100318.72;;;7.27
73734;BMP280;62039;50.000;9.064;2023-12-14T11:07:51;100313.50;;;7.27
73734;BMP280;62039;50.000;9.064;2023-12-14T11:10:22;100316.09;;;7.27
73734;BMP280;62039;50.000;9.064;2023-12-14T11:12:55;100318.72;;;7.27
73734;BMP280;62039;50.000;9.064;2023-12-14T11:15:22;100321.97;;;7.29
73734;BMP280;62039;50.000;9.064;2023-12-14T11:20:50;100321.97;;;7.29
73734;BMP280;62039;50.000;9.064;2023-12-14T11:23:26;100327.16;;;7.29
73734;BMP280;62039;50.000;9.064;2023-12-14T11:25:56;100323.59;;;7.30
73734;BMP280;62039;50.000;9.064;2023-12-14T11:28:28;100326.91;;;7.32
73734;BMP280;62039;50.000;9.064;2023-12-14T11:30:56;100333.75;;;7.33
73734;BMP280;62039;50.000;9.064;2023-12-14T11:33:24;100337.97;;;7.34
73734;BMP280;62039;50.000;9.064;2023-12-14T11:35:51;100345.63;;;7.36
73734;BMP280;62039;50.000;9.064;2023-12-14T11:38:18;100354.22;;;7.36
73734;BMP280;62039;50.000;9.064;2023-12-14T11:40:46;100353.28;;;7.37
73734;BMP280;62039;50.000;9.064;2023-12-14T11:43:13;100363.53;;;7.39
73734;BMP280;62039;50.000;9.064;2023-12-14T11:45:43;100360.81;;;7.40
73734;BMP280;62039;50.000;9.064;2023-12-14T11:48:11;100363.41;;;7.40
73734;BMP280;62039;50.000;9.064;2023-12-14T11:50:40;100372.03;;;7.41
73734;BMP280;62039;50.000;9.064;2023-12-14T11:53:09;100371.88;;;7.42
73734;BMP280;62039;50.000;9.064;2023-12-14T11:55:39;100381.31;;;7.43
73734;BMP280;62039;50.000;9.064;2023-12-14T11:58:07;100383.09;;;7.43
73734;BMP280;62039;50.000;9.064;2023-12-14T12:00:34;100375.28;;;7.43
73734;BMP280;62039;50.000;9.064;2023-12-14T12:03:12;100382.97;;;7.44
73734;BMP280;62039;50.000;9.064;2023-12-14T12:05:40;100371.75;;;7.44
73734;BMP280;62039;50.000;9.064;2023-12-14T12:08:08;100373.38;;;7.45
73734;BMP280;62039;50.000;9.064;2023-12-14T12:10:36;100383.66;;;7.46
73734;BMP280;62039;50.000;9.064;2023-12-14T12:13:04;100374.22;;;7.45
73734;BMP280;62039;50.000;9.064;2023-12-14T12:15:32;100369.84;;;7.46
73734;BMP280;62039;50.000;9.064;2023-12-14T12:17:59;100381.06;;;7.46
73734;BMP280;62039;50.000;9.064;2023-12-14T12:20:29;100387.91;;;7.48
73734;BMP280;62039;50.000;9.064;2023-12-14T12:22:57;100388.72;;;7.48
73734;BMP280;62039;50.000;9.064;2023-12-14T12:25:24;100381.88;;;7.47
73734;BMP280;62039;50.000;9.064;2023-12-14T12:27:50;100383.53;;;7.48
73734;BMP280;62039;50.000;9.064;2023-12-14T12:30:18;100382.69;;;7.48
73734;BMP280;62039;50.000;9.064;2023-12-14T12:32:45;100389.53;;;7.49
73734;BMP280;62039;50.000;9.064;2023-12-14T12:35:12;100386.94;;;7.49
73734;BMP280;62039;50.000;9.064;2023-12-14T12:37:41;100394.75;;;7.49
73734;BMP280;62039;50.000;9.064;2023-12-14T12:40:09;100399.94;;;7.49
73734;BMP280;62039;50.000;9.064;2023-12-14T12:42:36;100394.75;;;7.49
73734;BMP280;62039;50.000;9.064;2023-12-14T12:45:05;100400.72;;;7.49
73734;BMP280;62039;50.000;9.064;2023-12-14T12:47:32;100409.34;;;7.50
73734;BMP280;62039;50.000;9.064;2023-12-14T12:50:00;100417.16;;;7.50
73734;BMP280;62039;50.000;9.064;2023-12-14T12:52:27;100410.03;;;7.52
73734;BMP280;62039;50.000;9.064;2023-12-14T12:54:57;100419.63;;;7.51
73734;BMP280;62039;50.000;9.064;2023-12-14T12:57:24;100426.59;;;7.51
73734;BMP280;62039;50.000;9.064;2023-12-14T12:59:50;100418.78;;;7.51
73734;BMP280;62039;50.000;9.064;2023-12-14T13:02:18;100429.19;;;7.51
73734;BMP280;62039;50.000;9.064;2023-12-14T13:04:44;100421.28;;;7.52
73734;BMP280;62039;50.000;9.064;2023-12-14T13:07:11;100422.13;;;7.53
73734;BMP280;62039;50.000;9.064;2023-12-14T13:09:40;100435.81;;;7.55
73734;BMP280;62039;50.000;9.064;2023-12-14T13:12:10;100428.69;;;7.57
73734;BMP280;62039;50.000;9.064;2023-12-14T13:14:36;100437.16;;;7.59
73734;BMP280;62039;50.000;9.064;2023-12-14T13:17:03;100431.00;;;7.60
73734;BMP280;62039;50.000;9.064;2023-12-14T13:19:30;100429.09;;;7.62
73734;BMP280;62039;50.000;9.064;2023-12-14T13:21:57;100434.16;;;7.63
73734;BMP280;62039;50.000;9.064;2023-12-14T13:24:24;100438.25;;;7.66
73734;BMP280;62039;50.000;9.064;2023-12-14T13:26:51;100427.84;;;7.66
73734;BMP280;62039;50.000;9.064;2023-12-14T13:29:21;100439.91;;;7.67
73734;BMP280;62039;50.000;9.064;2023-12-14T13:31:48;100443.19;;;7.69
73734;BMP280;62039;50.000;9.064;2023-12-14T13:34:15;100449.06;;;7.71
73734;BMP280;62039;50.000;9.064;2023-12-14T13:36:42;100461.22;;;7.70
73734;BMP280;62039;50.000;9.064;2023-12-14T13:39:09;100465.34;;;7.73
73734;BMP280;62039;50.000;9.064;2023-12-14T13:41:36;100471.25;;;7.75
73734;BMP280;62039;50.000;9.064;2023-12-14T13:44:15;100468.66;;;7.75
73734;BMP280;62039;50.000;9.064;2023-12-14T13:46:45;100471.09;;;7.76
73734;BMP280;62039;50.000;9.064;2023-12-14T13:49:12;100482.31;;;7.77
73734;BMP280;62039;50.000;9.064;2023-12-14T13:51:39;100486.56;;;7.78
73734;BMP280;62039;50.000;9.064;2023-12-14T13:54:06;100490.81;;;7.79
73734;BMP280;62039;50.000;9.064;2023-12-14T13:56:33;100497.66;;;7.80
73734;BMP280;62039;50.000;9.064;2023-12-14T13:59:00;100506.16;;;7.82
73734;BMP280;62039;50.000;9.064;2023-12-14T14:01:27;100507.75;;;7.83
73734;BMP280;62039;50.000;9.064;2023-12-14T14:03:57;100503.38;;;7.83
73734;BMP280;62039;50.000;9.064;2023-12-14T14:06:23;100510.22;;;7.84
73734;BMP280;62039;50.000;9.064;2023-12-14T14:08:50;100508.47;;;7.85
73734;BMP280;62039;50.000;9.064;2023-12-14T14:11:17;100514.47;;;7.85
73734;BMP280;62039;50.000;9.064;2023-12-14T14:13:44;100523.94;;;7.87
73734;BMP280;62039;50.000;9.064;2023-12-14T14:16:11;100533.50;;;7.86
73734;BMP280;62039;50.000;9.064;2023-12-14T14:18:38;100541.19;;;7.88
73734;BMP280;62039;50.000;9.064;2023-12-14T14:21:08;100550.63;;;7.89